sensor_id;sensor_type;location;lat;lon;timestamp;pressure;altitude;pressure_sealevel;temperature;humidity
52185;BME280;38160;52.876;18.778;2023-02-13T01:18:40;102571.98;;;3.08;100.00
52185;BME280;38160;52.876;18.778;2023-02-13T02:47:47;102555.94;;;3.33;100.00
52185;BME280;38160;52.876;18.778;2023-02-13T02:51:01;102564.17;;;3.31;100.00
52185;BME280;38160;52.876;18.778;2023-02-13T02:53:40;102560.77;;;3.32;100.00
52185;BME280;38160;52.876;18.778;2023-02-13T02:56:21;102559.12;;;3.33;100.00
52185;BME280;38160;52.876;18.778;2023-02-13T02:59:02;102564.92;;;3.35;100.00
52185;BME280;38160;52.876;18.778;2023-02-13T03:01:56;102565.98;;;3.35;100.00
52185;BME280;38160;52.876;18.778;2023-02-13T03:04:50;102559.13;;;3.33;100.00
52185;BME280;38160;52.876;18.778;2023-02-13T03:07:44;102565.28;;;3.35;100.00
52185;BME280;38160;52.876;18.778;2023-02-13T03:10:24;102562.77;;;3.35;100.00
52185;BME280;38160;52.876;18.778;2023-02-13T03:13:32;102560.02;;;3.37;100.00
52185;BME280;38160;52.876;18.778;2023-02-13T03:16:14;102561.33;;;3.39;100.00
52185;BME280;38160;52.876;18.778;2023-02-13T03:19:12;102564.30;;;3.40;100.00
52185;BME280;38160;52.876;18.778;2023-02-13T03:22:13;102563.67;;;3.42;100.00
52185;BME280;38160;52.876;18.778;2023-02-13T03:24:59;102568.38;;;3.44;100.00
52185;BME280;38160;52.876;18.778;2023-02-13T03:27:44;102565.78;;;3.47;100.00
52185;BME280;38160;52.876;18.778;2023-02-13T03:30:50;102565.17;;;3.48;100.00
52185;BME280;38160;52.876;18.778;2023-02-13T03:33:34;102566.86;;;3.50;100.00
52185;BME280;38160;52.876;18.778;2023-02-13T03:36:16;102567.18;;;3.51;100.00
52185;BME280;38160;52.876;18.778;2023-02-13T03:39:16;102569.42;;;3.53;100.00
52185;BME280;38160;52.876;18.778;2023-02-13T03:41:56;102574.27;;;3.56;100.00
52185;BME280;38160;52.876;18.778;2023-02-13T03:44:33;102572.91;;;3.58;100.00
52185;BME280;38160;52.876;18.778;2023-02-13T03:47:09;102573.17;;;3.61;100.00
52185;BME280;38160;52.876;18.778;2023-02-13T03:49:46;102574.78;;;3.64;100.00
52185;BME280;38160;52.876;18.778;2023-02-13T03:52:44;102574.39;;;3.64;100.00
52185;BME280;38160;52.876;18.778;2023-02-13T03:55:22;102580.45;;;3.64;100.00
52185;BME280;38160;52.876;18.778;2023-02-13T03:58:18;102582.68;;;3.66;100.00
52185;BME280;38160;52.876;18.778;2023-02-13T04:01:15;102582.23;;;3.68;100.00
52185;BME280;38160;52.876;18.778;2023-02-13T04:03:54;102587.30;;;3.70;100.00
52185;BME280;38160;52.876;18.778;2023-02-13T04:06:31;102583.86;;;3.75;100.00
52185;BME280;38160;52.876;18.778;2023-02-13T04:09:07;102582.06;;;3.83;100.00
52185;BME280;38160;52.876;18.778;2023-02-13T04:11:45;102586.45;;;3.88;100.00
52185;BME280;38160;52.876;18.778;2023-02-13T04:14:26;102590.38;;;3.92;100.00
52185;BME280;38160;52.876;18.778;2023-02-13T04:17:04;102594.98;;;3.96;100.00
52185;BME280;38160;52.876;18.778;2023-02-13T04:19:39;102595.80;;;3.98;100.00
52185;BME280;38160;52.876;18.778;2023-02-13T04:22:12;102596.63;;;3.99;100.00
52185;BME280;38160;52.876;18.778;2023-02-13T04:24:47;102598.29;;;4.01;100.00
52185;BME280;38160;52.876;18.778;2023-02-13T04:27:20;102592.73;;;4.02;100.00
52185;BME280;38160;52.876;18.778;2023-02-13T04:29:57;102597.08;;;4.04;100.00
52185;BME280;38160;52.876;18.778;2023-02-13T04:32:30;102598.39;;;4.06;100.00
52185;BME280;38160;52.876;18.778;2023-02-13T04:35:04;102598.70;;;4.08;100.00
52185;BME280;38160;52.876;18.778;2023-02-13T04:37:38;102601.92;;;4.07;100.00
52185;BME280;38160;52.876;18.778;2023-02-13T04:40:12;102598.58;;;4.06;100.00
52185;BME280;38160;52.876;18.778;2023-02-13T04:42:48;102602.44;;;4.08;100.00
52185;BME280;38160;52.876;18.778;2023-02-13T04:45:22;102599.73;;;4.08;100.00
52185;BME280;38160;52.876;18.778;2023-02-13T04:47:57;102599.13;;;4.10;100.00
52185;BME280;38160;52.876;18.778;2023-02-13T04:50:30;102600.67;;;4.11;100.00
52185;BME280;38160;52.876;18.778;2023-02-13T04:53:04;102592.45;;;4.12;100.00
52185;BME280;38160;52.876;18.778;2023-02-13T04:55:37;102592.97;;;4.15;100.00
52185;BME280;38160;52.876;18.778;2023-02-13T04:58:10;102587.75;;;4.17;100.00
52185;BME280;38160;52.876;18.778;2023-02-13T05:00:44;102590.67;;;4.19;100.00
52185;BME280;38160;52.876;18.778;2023-02-13T05:03:17;102592.38;;;4.20;100.00
52185;BME280;38160;52.876;18.778;2023-02-13T05:05:51;102594.95;;;4.23;100.00
52185;BME280;38160;52.876;18.778;2023-02-13T05:08:24;102593.36;;;4.26;100.00
52185;BME280;38160;52.876;18.778;2023-02-13T05:10:58;102597.59;;;4.26;100.00
52185;BME280;38160;52.876;18.778;2023-02-13T05:13:31;102594.94;;;4.26;100.00
52185;BME280;38160;52.876;18.778;2023-02-13T05:16:06;102597.73;;;4.27;100.00
52185;BME280;38160;52.876;18.778;2023-02-13T05:18:39;102595.75;;;4.24;100.00
52185;BME280;38160;52.876;18.778;2023-02-13T05:21:13;102589.77;;;4.23;100.00
52185;BME280;38160;52.876;18.778;2023-02-13T05:24:05;102595.16;;;4.22;100.00
52185;BME280;38160;52.876;18.778;2023-02-13T05:26:40;102595.98;;;4.20;100.00
52185;BME280;38160;52.876;18.778;2023-02-13T05:29:16;102593.42;;;4.17;100.00
52185;BME280;38160;52.876;18.778;2023-02-13T05:32:13;102598.67;;;4.16;100.00
52185;BME280;38160;52.876;18.778;2023-02-13T05:34:46;102598.17;;;4.15;100.00
52185;BME280;38160;52.876;18.778;2023-02-13T05:37:26;102603.92;;;4.13;100.00
52185;BME280;38160;52.876;18.778;2023-02-13T05:40:00;102603.72;;;4.14;100.00
52185;BME280;38160;52.876;18.778;2023-02-13T05:42:33;102603.09;;;4.12;100.00
52185;BME280;38160;52.876;18.778;2023-02-13T05:45:27;102604.13;;;4.09;100.00
52185;BME280;38160;52.876;18.778;2023-02-13T05:48:01;102609.82;;;4.06;100.00
52185;BME280;38160;52.876;18.778;2023-02-13T05:51:05;102606.98;;;4.02;100.00
52185;BME280;38160;52.876;18.778;2023-02-13T05:53:48;102602.44;;;3.97;100.00
52185;BME280;38160;52.876;18.778;2023-02-13T05:56:42;102607.88;;;3.99;100.00
52185;BME280;38160;52.876;18.778;2023-02-13T05:59:16;102606.72;;;3.96;100.00
52185;BME280;38160;52.876;18.778;2023-02-13T06:01:50;102606.58;;;3.92;100.00
52185;BME280;38160;52.876;18.778;2023-02-13T06:04:32;102610.27;;;3.89;100.00
52185;BME280;38160;52.876;18.778;2023-02-13T06:07:35;102614.23;;;3.84;100.00
52185;BME280;38160;52.876;18.778;2023-02-13T06:10:10;102612.16;;;3.79;100.00
52185;BME280;38160;52.876;18.778;2023-02-13T06:12:44;102616.07;;;3.79;100.00
52185;BME280;38160;52.876;18.778;2023-02-13T06:15:29;102618.64;;;3.78;100.00
52185;BME280;38160;52.876;18.778;2023-02-13T06:18:03;102620.33;;;3.76;100.00
52185;BME280;38160;52.876;18.778;2023-02-13T06:20:36;102626.05;;;3.75;100.00
52185;BME280;38160;52.876;18.778;2023-02-13T06:23:50;102623.59;;;3.75;100.00
52185;BME280;38160;52.876;18.778;2023-02-13T06:26:24;102624.71;;;3.74;100.00
52185;BME280;38160;52.876;18.778;2023-02-13T06:29:00;102612.56;;;3.70;100.00
52185;BME280;38160;52.876;18.778;2023-02-13T06:31:33;102615.00;;;3.76;100.00
52185;BME280;38160;52.876;18.778;2023-02-13T06:34:07;102614.11;;;3.76;100.00
52185;BME280;38160;52.876;18.778;2023-02-13T06:36:40;102616.23;;;3.76;100.00
52185;BME280;38160;52.876;18.778;2023-02-13T06:39:34;102609.31;;;3.75;100.00
52185;BME280;38160;52.876;18.778;2023-02-13T06:42:18;102609.20;;;3.74;100.00
52185;BME280;38160;52.876;18.778;2023-02-13T06:45:13;102612.06;;;3.74;100.00
52185;BME280;38160;52.876;18.778;2023-02-13T06:47:48;102612.08;;;3.73;100.00
52185;BME280;38160;52.876;18.778;2023-02-13T06:50:31;102608.34;;;3.74;100.00
52185;BME280;38160;52.876;18.778;2023-02-13T06:53:05;102605.88;;;3.73;100.00
52185;BME280;38160;52.876;18.778;2023-02-13T06:55:58;102614.91;;;3.74;100.00
52185;BME280;38160;52.876;18.778;2023-02-13T06:58:35;102616.13;;;3.75;100.00
52185;BME280;38160;52.876;18.778;2023-02-13T07:01:12;102619.05;;;3.73;100.00
52185;BME280;38160;52.876;18.778;2023-02-13T07:04:04;102614.89;;;3.70;100.00
52185;BME280;38160;52.876;18.778;2023-02-13T07:06:38;102619.16;;;3.70;100.00
52185;BME280;38160;52.876;18.778;2023-02-13T07:09:12;102625.74;;;3.70;100.00
52185;BME280;38160;52.876;18.778;2023-02-13T07:11:54;102622.56;;;3.70;100.00
52185;BME280;38160;52.876;18.778;2023-02-13T07:14:28;102618.73;;;3.68;100.00
52185;BME280;38160;52.876;18.778;2023-02-13T07:17:01;102622.14;;;3.67;100.00
52185;BME280;38160;52.876;18.778;2023-02-13T07:19:34;102614.48;;;3.68;100.00
52185;BME280;38160;52.876;18.778;2023-02-13T07:22:08;102616.73;;;3.69;100.00
52185;BME280;38160;52.876;18.778;2023-02-13T07:24:41;102614.45;;;3.68;100.00
52185;BME280;38160;52.876;18.778;2023-02-13T07:27:15;102615.19;;;3.68;100.00
52185;BME280;38160;52.876;18.778;2023-02-13T07:29:48;102608.88;;;3.69;100.00
52185;BME280;38160;52.876;18.778;2023-02-13T07:32:22;102608.07;;;3.71;100.00
52185;BME280;38160;52.876;18.778;2023-02-13T07:34:56;102612.25;;;3.73;100.00
52185;BME280;38160;52.876;18.778;2023-02-13T07:41:57;102611.05;;;3.72;100.00
52185;BME280;38160;52.876;18.778;2023-02-13T07:44:32;102610.97;;;3.75;100.00
52185;BME280;38160;52.876;18.778;2023-02-13T07:47:06;102609.11;;;3.76;100.00
52185;BME280;38160;52.876;18.778;2023-02-13T07:49:39;102602.39;;;3.79;100.00
52185;BME280;38160;52.876;18.778;2023-02-13T07:52:13;102607.51;;;3.80;100.00
52185;BME280;38160;52.876;18.778;2023-02-13T07:54:46;102606.80;;;3.79;100.00
52185;BME280;38160;52.876;18.778;2023-02-13T07:57:19;102610.09;;;3.82;100.00
52185;BME280;38160;52.876;18.778;2023-02-13T07:59:53;102604.52;;;3.83;100.00
52185;BME280;38160;52.876;18.778;2023-02-13T08:02:26;102603.14;;;3.85;100.00
52185;BME280;38160;52.876;18.778;2023-02-13T08:05:00;102602.65;;;3.88;100.00
52185;BME280;38160;52.876;18.778;2023-02-13T08:07:33;102598.64;;;3.90;100.00
52185;BME280;38160;52.876;18.778;2023-02-13T08:10:11;102600.34;;;3.92;100.00
52185;BME280;38160;52.876;18.778;2023-02-13T08:13:18;102595.98;;;3.94;100.00
52185;BME280;38160;52.876;18.778;2023-02-13T08:15:52;102595.55;;;3.95;100.00
52185;BME280;38160;52.876;18.778;2023-02-13T08:18:25;102594.98;;;3.96;100.00
52185;BME280;38160;52.876;18.778;2023-02-13T08:21:01;102593.73;;;3.97;100.00
52185;BME280;38160;52.876;18.778;2023-02-13T08:23:34;102595.08;;;4.02;100.00
52185;BME280;38160;52.876;18.778;2023-02-13T08:26:08;102595.45;;;4.05;100.00
52185;BME280;38160;52.876;18.778;2023-02-13T08:28:43;102598.34;;;4.08;100.00
52185;BME280;38160;52.876;18.778;2023-02-13T08:31:16;102589.30;;;4.10;100.00
52185;BME280;38160;52.876;18.778;2023-02-13T08:33:50;102585.69;;;4.12;100.00
52185;BME280;38160;52.876;18.778;2023-02-13T08:36:23;102584.92;;;4.12;100.00
52185;BME280;38160;52.876;18.778;2023-02-13T08:38:57;102578.98;;;4.18;100.00
52185;BME280;38160;52.876;18.778;2023-02-13T08:41:30;102575.16;;;4.22;100.00
52185;BME280;38160;52.876;18.778;2023-02-13T08:44:05;102575.81;;;4.27;100.00
52185;BME280;38160;52.876;18.778;2023-02-13T08:46:38;102572.48;;;4.30;100.00
52185;BME280;38160;52.876;18.778;2023-02-13T08:49:12;102571.56;;;4.34;100.00
52185;BME280;38160;52.876;18.778;2023-02-13T08:51:45;102571.00;;;4.39;100.00
52185;BME280;38160;52.876;18.778;2023-02-13T08:54:19;102567.41;;;4.43;100.00
52185;BME280;38160;52.876;18.778;2023-02-13T08:56:53;102570.34;;;4.44;100.00
52185;BME280;38160;52.876;18.778;2023-02-13T08:59:26;102572.33;;;4.47;100.00
52185;BME280;38160;52.876;18.778;2023-02-13T09:02:00;102572.87;;;4.51;100.00
52185;BME280;38160;52.876;18.778;2023-02-13T09:04:33;102572.45;;;4.55;100.00
52185;BME280;38160;52.876;18.778;2023-02-13T09:07:06;102571.75;;;4.59;100.00
52185;BME280;38160;52.876;18.778;2023-02-13T09:09:40;102571.33;;;4.63;100.00
52185;BME280;38160;52.876;18.778;2023-02-13T09:12:14;102572.16;;;4.68;100.00
52185;BME280;38160;52.876;18.778;2023-02-13T09:14:47;102572.77;;;4.73;100.00
52185;BME280;38160;52.876;18.778;2023-02-13T09:17:21;102568.69;;;4.77;100.00
52185;BME280;38160;52.876;18.778;2023-02-13T09:19:58;102569.27;;;4.79;100.00
52185;BME280;38160;52.876;18.778;2023-02-13T09:22:32;102573.45;;;4.81;100.00
52185;BME280;38160;52.876;18.778;2023-02-13T09:25:06;102574.14;;;4.82;100.00
52185;BME280;38160;52.876;18.778;2023-02-13T09:27:40;102578.48;;;4.84;100.00
52185;BME280;38160;52.876;18.778;2023-02-13T09:30:14;102569.23;;;4.87;100.00
52185;BME280;38160;52.876;18.778;2023-02-13T09:32:55;102569.61;;;4.90;100.00
52185;BME280;38160;52.876;18.778;2023-02-13T09:35:28;102567.11;;;4.90;100.00
52185;BME280;38160;52.876;18.778;2023-02-13T09:38:02;102564.35;;;4.92;100.00
52185;BME280;38160;52.876;18.778;2023-02-13T09:40:39;102565.77;;;4.95;100.00
52185;BME280;38160;52.876;18.778;2023-02-13T09:43:21;102564.53;;;4.95;100.00
52185;BME280;38160;52.876;18.778;2023-02-13T09:46:00;102571.08;;;4.96;100.00
52185;BME280;38160;52.876;18.778;2023-02-13T09:48:38;102565.77;;;4.99;100.00
52185;BME280;38160;52.876;18.778;2023-02-13T09:51:33;102566.30;;;4.99;100.00
52185;BME280;38160;52.876;18.778;2023-02-13T09:54:11;102559.75;;;5.01;100.00
52185;BME280;38160;52.876;18.778;2023-02-13T09:56:50;102555.05;;;5.02;100.00
52185;BME280;38160;52.876;18.778;2023-02-13T09:59:57;102556.67;;;5.02;100.00
52185;BME280;38160;52.876;18.778;2023-02-13T10:02:57;102568.65;;;5.01;100.00
52185;BME280;38160;52.876;18.778;2023-02-13T10:05:58;102570.38;;;5.03;100.00
52185;BME280;38160;52.876;18.778;2023-02-13T10:09:09;102566.42;;;5.03;100.00
52185;BME280;38160;52.876;18.778;2023-02-13T10:12:12;102570.48;;;5.07;100.00
52185;BME280;38160;52.876;18.778;2023-02-13T10:15:19;102562.69;;;5.09;100.00
52185;BME280;38160;52.876;18.778;2023-02-13T10:25:58;102571.77;;;5.06;100.00
52185;BME280;38160;52.876;18.778;2023-02-13T10:28:36;102574.74;;;5.11;100.00
52185;BME280;38160;52.876;18.778;2023-02-13T10:31:13;102576.70;;;5.14;100.00
52185;BME280;38160;52.876;18.778;2023-02-13T10:45:26;102553.22;;;5.27;100.00
52185;BME280;38160;52.876;18.778;2023-02-13T10:48:16;102540.21;;;5.33;100.00
52185;BME280;38160;52.876;18.778;2023-02-13T10:50:57;102547.52;;;5.40;100.00
52185;BME280;38160;52.876;18.778;2023-02-13T11:03:17;102544.43;;;5.53;100.00
52185;BME280;38160;52.876;18.778;2023-02-13T11:05:53;102543.30;;;5.57;100.00
52185;BME280;38160;52.876;18.778;2023-02-13T11:08:49;102540.19;;;5.62;100.00
52185;BME280;38160;52.876;18.778;2023-02-13T11:11:52;102542.13;;;5.69;100.00
52185;BME280;38160;52.876;18.778;2023-02-13T11:14:26;102537.95;;;5.77;100.00
52185;BME280;38160;52.876;18.778;2023-02-13T11:17:02;102532.58;;;5.84;100.00
52185;BME280;38160;52.876;18.778;2023-02-13T11:19:39;102536.06;;;5.91;100.00
52185;BME280;38160;52.876;18.778;2023-02-13T11:22:29;102536.30;;;6.00;100.00
52185;BME280;38160;52.876;18.778;2023-02-13T11:25:06;102538.42;;;6.07;100.00
52185;BME280;38160;52.876;18.778;2023-02-13T11:27:51;102530.63;;;6.15;100.00
52185;BME280;38160;52.876;18.778;2023-02-13T11:30:33;102520.45;;;6.18;100.00
52185;BME280;38160;52.876;18.778;2023-02-13T11:33:26;102520.88;;;6.16;100.00
52185;BME280;38160;52.876;18.778;2023-02-13T11:36:06;102514.96;;;6.14;100.00
52185;BME280;38160;52.876;18.778;2023-02-13T11:38:41;102521.42;;;6.16;100.00
52185;BME280;38160;52.876;18.778;2023-02-13T11:41:17;102508.00;;;6.14;100.00
52185;BME280;38160;52.876;18.778;2023-02-13T11:43:54;102502.11;;;6.11;100.00
52185;BME280;38160;52.876;18.778;2023-02-13T11:46:44;102502.09;;;6.11;100.00
52185;BME280;38160;52.876;18.778;2023-02-13T11:49:21;102492.14;;;6.13;100.00
52185;BME280;38160;52.876;18.778;2023-02-13T11:51:57;102496.61;;;6.13;100.00
52185;BME280;38160;52.876;18.778;2023-02-13T11:54:32;102494.21;;;6.14;100.00
52185;BME280;38160;52.876;18.778;2023-02-13T11:57:19;102496.41;;;6.16;100.00
52185;BME280;38160;52.876;18.778;2023-02-13T11:59:54;102495.48;;;6.17;100.00
52185;BME280;38160;52.876;18.778;2023-02-13T12:02:29;102492.11;;;6.17;100.00
52185;BME280;38160;52.876;18.778;2023-02-13T12:05:18;102493.31;;;6.20;100.00
52185;BME280;38160;52.876;18.778;2023-02-13T12:07:56;102496.26;;;6.22;100.00
52185;BME280;38160;52.876;18.778;2023-02-13T12:10:32;102491.31;;;6.21;100.00
52185;BME280;38160;52.876;18.778;2023-02-13T12:13:14;102487.91;;;6.21;100.00
52185;BME280;38160;52.876;18.778;2023-02-13T12:15:58;102475.80;;;6.20;100.00
52185;BME280;38160;52.876;18.778;2023-02-13T12:18:35;102472.85;;;6.22;100.00
52185;BME280;38160;52.876;18.778;2023-02-13T12:21:18;102479.55;;;6.24;100.00
52185;BME280;38160;52.876;18.778;2023-02-13T12:24:07;102484.36;;;6.24;100.00
52185;BME280;38160;52.876;18.778;2023-02-13T12:26:51;102479.71;;;6.24;100.00
52185;BME280;38160;52.876;18.778;2023-02-13T12:29:48;102475.79;;;6.24;100.00
52185;BME280;38160;52.876;18.778;2023-02-13T12:32:34;102469.34;;;6.18;100.00
52185;BME280;38160;52.876;18.778;2023-02-13T12:35:29;102477.77;;;6.20;100.00
52185;BME280;38160;52.876;18.778;2023-02-13T12:38:12;102480.59;;;6.21;100.00
52185;BME280;38160;52.876;18.778;2023-02-13T12:44:26;102468.11;;;6.20;100.00
52185;BME280;38160;52.876;18.778;2023-02-13T12:47:09;102470.88;;;6.22;100.00
52185;BME280;38160;52.876;18.778;2023-02-13T12:50:02;102470.67;;;6.23;100.00
52185;BME280;38160;52.876;18.778;2023-02-13T12:52:49;102458.25;;;6.21;100.00
52185;BME280;38160;52.876;18.778;2023-02-13T12:55:45;102463.36;;;6.19;100.00
52185;BME280;38160;52.876;18.778;2023-02-13T12:58:37;102467.82;;;6.19;100.00
52185;BME280;38160;52.876;18.778;2023-02-13T13:01:22;102461.39;;;6.19;100.00
52185;BME280;38160;52.876;18.778;2023-02-13T13:04:06;102457.98;;;6.16;99.97
52185;BME280;38160;52.876;18.778;2023-02-13T13:06:53;102458.71;;;6.16;99.83
52185;BME280;38160;52.876;18.778;2023-02-13T13:09:46;102463.05;;;6.18;100.00
52185;BME280;38160;52.876;18.778;2023-02-13T13:12:42;102460.42;;;6.20;100.00
52185;BME280;38160;52.876;18.778;2023-02-13T13:15:24;102455.55;;;6.18;99.95
52185;BME280;38160;52.876;18.778;2023-02-13T13:18:13;102450.43;;;6.17;99.82
52185;BME280;38160;52.876;18.778;2023-02-13T13:21:04;102454.77;;;6.13;99.81
52185;BME280;38160;52.876;18.778;2023-02-13T13:23:44;102457.89;;;6.12;99.78
52185;BME280;38160;52.876;18.778;2023-02-13T13:26:34;102462.08;;;6.10;99.51
52185;BME280;38160;52.876;18.778;2023-02-13T13:29:14;102456.95;;;6.10;99.48
52185;BME280;38160;52.876;18.778;2023-02-13T13:31:53;102459.55;;;6.08;99.51
52185;BME280;38160;52.876;18.778;2023-02-13T13:34:28;102464.77;;;6.08;99.42
52185;BME280;38160;52.876;18.778;2023-02-13T13:37:06;102474.52;;;6.06;99.43
52185;BME280;38160;52.876;18.778;2023-02-13T13:39:47;102469.05;;;6.02;99.70
52185;BME280;38160;52.876;18.778;2023-02-13T13:42:31;102463.18;;;5.98;99.48
52185;BME280;38160;52.876;18.778;2023-02-13T13:45:18;102469.35;;;5.96;99.55
52185;BME280;38160;52.876;18.778;2023-02-13T13:51:06;102472.90;;;5.93;99.49
52185;BME280;38160;52.876;18.778;2023-02-13T13:54:18;102470.16;;;5.91;99.19
52185;BME280;38160;52.876;18.778;2023-02-13T13:57:10;102467.36;;;5.87;99.05
52185;BME280;38160;52.876;18.778;2023-02-13T14:03:36;102462.88;;;5.78;99.14
52185;BME280;38160;52.876;18.778;2023-02-13T14:06:11;102475.34;;;5.72;98.72
52185;BME280;38160;52.876;18.778;2023-02-13T14:09:08;102484.44;;;5.67;98.72
52185;BME280;38160;52.876;18.778;2023-02-13T14:12:35;102479.22;;;5.64;98.95
52185;BME280;38160;52.876;18.778;2023-02-13T14:18:20;102482.94;;;5.58;98.92
52185;BME280;38160;52.876;18.778;2023-02-13T14:20:56;102483.19;;;5.57;98.74
52185;BME280;38160;52.876;18.778;2023-02-13T14:23:37;102473.65;;;5.55;98.81
52185;BME280;38160;52.876;18.778;2023-02-13T14:26:33;102463.48;;;5.52;98.55
52185;BME280;38160;52.876;18.778;2023-02-13T14:29:29;102461.11;;;5.49;98.55
52185;BME280;38160;52.876;18.778;2023-02-13T14:32:18;102447.77;;;5.45;98.25
52185;BME280;38160;52.876;18.778;2023-02-13T14:34:58;102455.08;;;5.42;98.32
52185;BME280;38160;52.876;18.778;2023-02-13T14:37:35;102464.75;;;5.39;98.29
52185;BME280;38160;52.876;18.778;2023-02-13T14:43:52;102466.96;;;5.34;98.48
52185;BME280;38160;52.876;18.778;2023-02-13T14:46:40;102467.64;;;5.32;98.25
52185;BME280;38160;52.876;18.778;2023-02-13T14:49:38;102466.03;;;5.28;98.04
52185;BME280;38160;52.876;18.778;2023-02-13T14:52:35;102463.06;;;5.24;97.89
52185;BME280;38160;52.876;18.778;2023-02-13T14:55:17;102458.91;;;5.22;97.65
52185;BME280;38160;52.876;18.778;2023-02-13T14:57:58;102442.55;;;5.21;97.98
52185;BME280;38160;52.876;18.778;2023-02-13T15:00:43;102436.19;;;5.19;98.02
52185;BME280;38160;52.876;18.778;2023-02-13T15:03:28;102432.33;;;5.18;97.93
52185;BME280;38160;52.876;18.778;2023-02-13T15:06:06;102437.69;;;5.18;98.02
52185;BME280;38160;52.876;18.778;2023-02-13T15:08:49;102436.39;;;5.16;97.80
52185;BME280;38160;52.876;18.778;2023-02-13T15:11:38;102442.70;;;5.14;97.66
52185;BME280;38160;52.876;18.778;2023-02-13T15:14:21;102433.55;;;5.12;97.59
52185;BME280;38160;52.876;18.778;2023-02-13T15:17:06;102430.29;;;5.10;97.56
52185;BME280;38160;52.876;18.778;2023-02-13T15:19:45;102424.83;;;5.09;97.77
52185;BME280;38160;52.876;18.778;2023-02-13T15:22:31;102425.38;;;5.08;97.57
52185;BME280;38160;52.876;18.778;2023-02-13T15:25:06;102414.11;;;5.06;97.48
52185;BME280;38160;52.876;18.778;2023-02-13T15:27:43;102408.73;;;5.03;97.41
52185;BME280;38160;52.876;18.778;2023-02-13T15:30:18;102409.13;;;4.99;97.33
52185;BME280;38160;52.876;18.778;2023-02-13T15:33:15;102411.13;;;4.95;97.37
52185;BME280;38160;52.876;18.778;2023-02-13T15:35:58;102426.10;;;4.95;97.38
52185;BME280;38160;52.876;18.778;2023-02-13T15:38:38;102431.05;;;4.96;97.18
52185;BME280;38160;52.876;18.778;2023-02-13T15:41:33;102433.48;;;4.97;97.08
52185;BME280;38160;52.876;18.778;2023-02-13T15:44:17;102433.16;;;4.96;97.00
52185;BME280;38160;52.876;18.778;2023-02-13T15:46:56;102425.81;;;4.94;96.78
52185;BME280;38160;52.876;18.778;2023-02-13T15:49:37;102431.34;;;4.91;96.92
52185;BME280;38160;52.876;18.778;2023-02-13T15:52:17;102444.02;;;4.91;96.85
52185;BME280;38160;52.876;18.778;2023-02-13T15:54:53;102442.08;;;4.90;96.78
52185;BME280;38160;52.876;18.778;2023-02-13T15:57:27;102440.86;;;4.90;96.67
52185;BME280;38160;52.876;18.778;2023-02-13T16:00:03;102444.94;;;4.90;96.13
52185;BME280;38160;52.876;18.778;2023-02-13T16:48:07;102442.38;;;4.58;95.38
52185;BME280;38160;52.876;18.778;2023-02-13T16:50:44;102444.67;;;4.55;95.51
52185;BME280;38160;52.876;18.778;2023-02-13T16:53:18;102436.61;;;4.52;95.41
52185;BME280;38160;52.876;18.778;2023-02-13T16:55:58;102435.70;;;4.49;95.20
52185;BME280;38160;52.876;18.778;2023-02-13T16:58:33;102436.95;;;4.46;95.41
52185;BME280;38160;52.876;18.778;2023-02-13T17:01:15;102441.73;;;4.43;95.53
52185;BME280;38160;52.876;18.778;2023-02-13T17:03:49;102439.06;;;4.40;95.46
52185;BME280;38160;52.876;18.778;2023-02-13T17:06:24;102443.07;;;4.38;95.67
52185;BME280;38160;52.876;18.778;2023-02-13T17:09:30;102442.73;;;4.34;95.45
52185;BME280;38160;52.876;18.778;2023-02-13T17:12:30;102441.51;;;4.30;95.53
52185;BME280;38160;52.876;18.778;2023-02-13T17:15:13;102438.79;;;4.28;95.48
52185;BME280;38160;52.876;18.778;2023-02-13T17:17:48;102447.64;;;4.25;95.45
52185;BME280;38160;52.876;18.778;2023-02-13T17:20:29;102446.63;;;4.24;95.50
52185;BME280;38160;52.876;18.778;2023-02-13T17:23:15;102448.86;;;4.22;95.55
52185;BME280;38160;52.876;18.778;2023-02-13T17:25:51;102453.27;;;4.23;95.52
52185;BME280;38160;52.876;18.778;2023-02-13T17:29:28;102452.07;;;4.22;95.41
52185;BME280;38160;52.876;18.778;2023-02-13T17:32:03;102450.08;;;4.23;95.40
52185;BME280;38160;52.876;18.778;2023-02-13T17:34:37;102457.00;;;4.24;95.49
52185;BME280;38160;52.876;18.778;2023-02-13T17:37:16;102460.39;;;4.27;95.46
52185;BME280;38160;52.876;18.778;2023-02-13T17:39:51;102464.32;;;4.30;95.31
52185;BME280;38160;52.876;18.778;2023-02-13T17:42:27;102467.09;;;4.31;95.34
52185;BME280;38160;52.876;18.778;2023-02-13T17:45:01;102469.80;;;4.31;95.15
52185;BME280;38160;52.876;18.778;2023-02-13T17:47:37;102471.42;;;4.30;95.23
52185;BME280;38160;52.876;18.778;2023-02-13T17:50:12;102475.48;;;4.31;95.36
52185;BME280;38160;52.876;18.778;2023-02-13T17:52:48;102471.50;;;4.32;95.06
52185;BME280;38160;52.876;18.778;2023-02-13T17:55:22;102474.54;;;4.32;95.03
52185;BME280;38160;52.876;18.778;2023-02-13T17:58:00;102476.70;;;4.28;95.16
52185;BME280;38160;52.876;18.778;2023-02-13T18:00:35;102479.23;;;4.31;95.20
52185;BME280;38160;52.876;18.778;2023-02-13T18:03:11;102480.73;;;4.33;95.21
52185;BME280;38160;52.876;18.778;2023-02-13T18:05:46;102479.73;;;4.35;95.14
52185;BME280;38160;52.876;18.778;2023-02-13T18:08:20;102482.21;;;4.36;94.79
52185;BME280;38160;52.876;18.778;2023-02-13T18:10:56;102485.11;;;4.39;95.02
52185;BME280;38160;52.876;18.778;2023-02-13T18:13:30;102485.18;;;4.41;94.80
52185;BME280;38160;52.876;18.778;2023-02-13T18:16:09;102485.89;;;4.40;94.91